createdAt,value
2018-04-08T00:00:51.787Z,18.30
2018-04-08T00:03:19.388Z,12.40
2018-04-08T00:05:46.927Z,15.83
2018-04-08T00:08:14.423Z,16.57
2018-04-08T00:10:42.010Z,17.60
2018-04-08T00:13:10.299Z,11.47
2018-04-08T00:15:38.542Z,10.40
2018-04-08T00:18:06.025Z,13.63
2018-04-08T00:20:34.316Z,19.63
2018-04-08T00:23:01.851Z,10.57
2018-04-08T00:25:30.105Z,12.13
2018-04-08T00:27:57.755Z,10.77
2018-04-08T00:30:25.246Z,12.07
2018-04-08T00:32:53.501Z,13.70
2018-04-08T00:35:21.066Z,12.70
2018-04-08T00:37:48.562Z,13.73
2018-04-08T00:40:16.057Z,15.70
2018-04-08T00:42:43.597Z,13.50
2018-04-08T00:45:11.091Z,12.35
2018-04-08T00:47:38.582Z,12.43
2018-04-08T00:50:06.874Z,20.13
2018-04-08T00:52:34.375Z,13.73
2018-04-08T00:55:01.874Z,18.98
2018-04-08T00:57:30.218Z,13.13
2018-04-08T00:59:57.713Z,21.65
2018-04-08T01:02:25.201Z,15.93
2018-04-08T01:04:52.975Z,15.65
2018-04-08T01:07:20.558Z,13.57
2018-04-08T01:09:48.070Z,13.57
2018-04-08T01:12:16.369Z,15.60
2018-04-08T01:14:43.858Z,13.60
2018-04-08T01:17:11.354Z,15.15
2018-04-08T01:19:39.637Z,17.33
2018-04-08T01:22:07.126Z,20.80
2018-04-08T01:24:34.610Z,19.53
2018-04-08T01:27:02.106Z,16.27
2018-04-08T01:29:29.597Z,18.27
2018-04-08T01:31:57.089Z,15.20
2018-04-08T01:34:24.598Z,18.27
2018-04-08T01:36:52.079Z,14.57
2018-04-08T01:39:19.574Z,19.00
2018-04-08T01:41:47.853Z,21.37
2018-04-08T01:44:16.102Z,25.33
2018-04-08T01:46:43.582Z,18.23
2018-04-08T01:49:11.097Z,20.27
2018-04-08T01:51:38.583Z,23.87
2018-04-08T01:54:06.069Z,20.70
2018-04-08T01:56:34.336Z,25.07
2018-04-08T01:59:02.606Z,23.25
2018-04-08T02:01:30.102Z,22.00
2018-04-08T02:03:57.598Z,21.53
2018-04-08T02:06:25.125Z,22.20
2018-04-08T02:08:52.638Z,20.73
2018-04-08T02:11:20.142Z,19.53
2018-04-08T02:13:47.658Z,22.23
2018-04-08T02:16:15.159Z,22.13
2018-04-08T02:18:42.638Z,20.73
2018-04-08T02:21:10.202Z,18.23
2018-04-08T02:23:37.719Z,18.87
2018-04-08T02:26:05.211Z,22.90
2018-04-08T02:28:32.710Z,21.50
2018-04-08T02:31:00.970Z,20.53
2018-04-08T02:33:28.467Z,17.33
2018-04-08T02:35:56.003Z,19.93
2018-04-08T02:38:24.254Z,17.50
2018-04-08T02:40:51.739Z,19.80
2018-04-08T02:43:19.244Z,15.77
2018-04-08T02:45:46.736Z,24.23
2018-04-08T02:48:14.243Z,21.13
2018-04-08T02:50:41.735Z,18.37
2018-04-08T02:53:09.216Z,19.60
2018-04-08T02:55:36.718Z,19.37
2018-04-08T02:58:04.206Z,21.37
2018-04-08T03:00:31.751Z,21.30
2018-04-08T03:02:59.242Z,26.73
2018-04-08T03:05:26.895Z,21.27
2018-04-08T03:07:54.416Z,21.27
2018-04-08T03:10:21.924Z,27.33
2018-04-08T03:12:49.546Z,18.77
2018-04-08T03:15:17.033Z,26.00
2018-04-08T03:17:44.565Z,20.80
2018-04-08T03:20:12.068Z,25.90
2018-04-08T03:22:39.566Z,30.23
2018-04-08T03:25:07.058Z,25.13
2018-04-08T03:27:34.554Z,26.13
2018-04-08T03:30:02.811Z,22.13
2018-04-08T03:32:30.320Z,37.13
2018-04-08T03:34:57.818Z,23.47
2018-04-08T03:37:25.301Z,25.03
2018-04-08T03:39:53.564Z,29.33
2018-04-08T03:42:21.055Z,28.23
2018-04-08T03:44:49.305Z,26.70
2018-04-08T03:47:16.814Z,24.87
2018-04-08T03:49:44.315Z,31.20
2018-04-08T03:52:11.838Z,28.77
2018-04-08T03:54:39.334Z,29.30
2018-04-08T03:57:06.868Z,30.87
2018-04-08T03:59:34.353Z,28.90
2018-04-08T04:02:01.834Z,28.90
2018-04-08T04:04:30.102Z,29.67
2018-04-08T04:06:58.362Z,32.15
2018-04-08T04:09:25.925Z,30.25
2018-04-08T04:11:53.561Z,30.67
2018-04-08T04:14:21.120Z,37.37
2018-04-08T04:16:49.420Z,26.47
2018-04-08T04:19:28.769Z,29.50
2018-04-08T04:27:44.021Z,34.00
2018-04-08T04:30:11.506Z,32.13
2018-04-08T04:32:39.011Z,34.40
2018-04-08T04:35:06.501Z,32.67
2018-04-08T04:37:33.999Z,29.05
2018-04-08T04:40:01.507Z,37.40
2018-04-08T04:42:28.998Z,37.45
2018-04-08T04:44:56.501Z,34.00
2018-04-08T04:47:24.022Z,35.93
2018-04-08T04:49:51.517Z,29.95
2018-04-08T04:52:19.013Z,32.80
2018-04-08T04:54:46.649Z,33.87
2018-04-08T04:57:14.142Z,32.75
2018-04-08T04:59:41.634Z,31.48
2018-04-08T05:02:09.914Z,32.60
2018-04-08T05:04:38.185Z,30.30
2018-04-08T05:07:06.453Z,33.60
2018-04-08T05:09:33.970Z,30.15
2018-04-08T05:12:01.466Z,28.07
2018-04-08T05:14:28.957Z,32.03
2018-04-08T05:16:57.245Z,30.80
2018-04-08T05:19:24.735Z,28.50
2018-04-08T05:21:52.230Z,27.85
2018-04-08T05:24:19.731Z,41.20
2018-04-08T05:26:47.239Z,30.65
2018-04-08T05:29:14.731Z,34.47
2018-04-08T05:31:42.230Z,30.00
2018-04-08T05:34:09.742Z,33.23
2018-04-08T05:36:38.005Z,31.20
2018-04-08T05:39:06.289Z,32.38
2018-04-08T05:41:34.558Z,32.93
2018-04-08T05:44:02.814Z,28.40
2018-04-08T05:46:30.314Z,28.47
2018-04-08T05:48:57.910Z,28.53
2018-04-08T05:51:25.395Z,35.93
2018-04-08T05:53:52.891Z,26.77
2018-04-08T05:56:20.373Z,30.90
2018-04-08T05:58:47.865Z,35.23
2018-04-08T06:01:15.426Z,28.47
2018-04-08T06:03:42.910Z,32.70
2018-04-08T06:06:11.267Z,32.67
2018-04-08T06:08:38.850Z,27.90
2018-04-08T06:11:06.411Z,29.75
2018-04-08T06:13:34.654Z,35.13
2018-04-08T06:16:02.222Z,26.10
2018-04-08T06:18:29.714Z,28.10
2018-04-08T06:20:57.204Z,32.13
2018-04-08T06:23:24.701Z,32.80
2018-04-08T06:25:52.958Z,23.33
2018-04-08T06:28:20.454Z,24.67
2018-04-08T06:30:47.966Z,26.93
2018-04-08T06:33:15.454Z,23.40
2018-04-08T06:35:42.930Z,27.93
2018-04-08T06:38:10.437Z,28.10
2018-04-08T06:40:37.926Z,27.30
2018-04-08T06:43:06.182Z,27.87
2018-04-08T06:45:33.690Z,24.07
2018-04-08T06:48:01.179Z,26.73
2018-04-08T06:50:28.666Z,24.33
2018-04-08T06:52:56.183Z,27.87
2018-04-08T06:55:23.677Z,26.60
2018-04-08T06:57:51.162Z,21.97
2018-04-08T07:00:19.456Z,22.87
2018-04-08T07:02:46.945Z,20.13
2018-04-08T07:05:14.443Z,27.00
2018-04-08T07:07:42.730Z,18.77
2018-04-08T07:10:10.986Z,22.23
2018-04-08T07:12:38.482Z,20.90
2018-04-08T07:15:05.978Z,20.77
2018-04-08T07:17:33.469Z,22.60
2018-04-08T07:20:00.973Z,22.43
2018-04-08T07:22:28.485Z,27.03
2018-04-08T07:24:55.970Z,24.27
2018-04-08T07:27:24.569Z,21.90
2018-04-08T07:29:52.078Z,21.73
2018-04-08T07:32:19.554Z,22.03
2018-04-08T07:34:48.609Z,21.10
2018-04-08T07:37:16.102Z,18.57
2018-04-08T07:39:44.674Z,22.30
2018-04-08T07:42:13.757Z,19.53
2018-04-08T07:44:42.081Z,17.57
2018-04-08T07:47:09.867Z,16.10
2018-04-08T07:49:37.486Z,20.23
2018-04-08T07:52:05.905Z,22.47
2018-04-08T07:54:33.485Z,22.03
2018-04-08T07:57:01.147Z,18.07
2018-04-08T07:59:28.685Z,22.93
2018-04-08T08:01:56.363Z,21.63
2018-04-08T08:04:23.931Z,22.60
2018-04-08T08:06:51.478Z,19.37
2018-04-08T08:09:19.091Z,17.90
2018-04-08T08:11:48.223Z,24.47
2018-04-08T08:14:15.736Z,20.07
2018-04-08T08:16:43.791Z,19.57
2018-04-08T08:19:11.950Z,19.73
2018-04-08T08:21:40.434Z,19.83
2018-04-08T08:24:08.479Z,23.13
2018-04-08T08:26:36.112Z,21.20
2018-04-08T08:29:04.566Z,20.50
2018-04-08T08:31:33.414Z,17.73
2018-04-08T08:34:01.418Z,18.90
2018-04-08T08:36:29.246Z,19.87
2018-04-08T08:38:57.198Z,18.83
2018-04-08T08:41:25.919Z,18.80
2018-04-08T08:43:54.824Z,19.33
2018-04-08T08:46:22.434Z,19.70
2018-04-08T08:48:50.945Z,19.13
2018-04-08T08:51:20.393Z,17.53
2018-04-08T08:53:48.145Z,19.17
2018-04-08T08:56:17.826Z,18.33
2018-04-08T08:58:48.549Z,20.00
2018-04-08T09:01:17.558Z,18.53
2018-04-08T09:03:45.619Z,18.73
2018-04-08T09:06:13.763Z,17.13
2018-04-08T09:08:43.304Z,18.60
2018-04-08T09:11:13.542Z,20.33
2018-04-08T09:13:42.820Z,16.87
2018-04-08T09:16:13.455Z,17.17
2018-04-08T09:18:45.438Z,13.50
2018-04-08T09:21:15.772Z,15.40
2018-04-08T09:23:44.344Z,16.43
2018-04-08T09:26:13.262Z,18.00
2018-04-08T09:28:44.155Z,13.10
2018-04-08T09:31:13.319Z,12.90
2018-04-08T09:33:43.677Z,15.00
2018-04-08T09:36:11.666Z,15.10
2018-04-08T09:38:40.436Z,10.20
2018-04-08T09:41:09.674Z,15.40
2018-04-08T09:43:37.533Z,10.47
2018-04-08T09:46:06.281Z,9.80
2018-04-08T09:48:34.899Z,13.03
2018-04-08T09:51:02.662Z,11.80
2018-04-08T09:53:31.175Z,10.13
2018-04-08T09:56:02.464Z,12.90
2018-04-08T09:58:41.421Z,12.00
2018-04-08T10:01:27.363Z,8.40
2018-04-08T10:03:57.867Z,8.20
2018-04-08T10:06:32.290Z,9.53
2018-04-08T10:09:05.148Z,9.33
2018-04-08T10:11:35.162Z,11.60
2018-04-08T10:14:03.014Z,10.03
2018-04-08T10:16:38.408Z,11.17
2018-04-08T10:19:07.306Z,11.57
2018-04-08T10:21:39.524Z,8.53
2018-04-08T10:24:09.576Z,7.47
2018-04-08T10:26:38.486Z,12.83
2018-04-08T10:29:14.445Z,8.40
2018-04-08T10:31:42.049Z,9.10
2018-04-08T10:34:09.598Z,11.00
2018-04-08T10:36:37.146Z,11.33
2018-04-08T10:39:04.636Z,11.60
2018-04-08T10:41:33.129Z,9.77
2018-04-08T10:44:01.644Z,11.57
2018-04-08T10:46:29.233Z,6.97
2018-04-08T10:48:57.651Z,11.53
2018-04-08T10:51:26.512Z,14.30
2018-04-08T10:53:54.160Z,13.50
2018-04-08T10:56:21.907Z,10.97
2018-04-08T10:58:54.046Z,10.93
2018-04-08T11:01:22.990Z,10.60
2018-04-08T11:03:50.647Z,8.30
2018-04-08T11:06:18.122Z,10.23
2018-04-08T11:08:45.721Z,6.37
2018-04-08T11:11:13.290Z,7.73
2018-04-08T11:13:44.032Z,9.27
2018-04-08T11:16:12.228Z,9.17
2018-04-08T11:18:39.797Z,9.33
2018-04-08T11:21:08.387Z,7.20
2018-04-08T11:23:35.987Z,6.90
2018-04-08T11:26:05.021Z,6.17
2018-04-08T11:28:32.596Z,9.10
2018-04-08T11:31:00.187Z,12.63
2018-04-08T11:33:27.781Z,10.70
2018-04-08T11:35:56.107Z,7.87
2018-04-08T11:38:23.591Z,5.90
2018-04-08T11:40:51.116Z,7.70
2018-04-08T11:43:18.704Z,6.27
2018-04-08T11:45:47.059Z,7.20
2018-04-08T11:48:14.700Z,11.00
2018-04-08T11:50:42.438Z,7.80
2018-04-08T11:53:10.159Z,6.90
2018-04-08T11:55:37.707Z,6.63
2018-04-08T11:58:05.987Z,8.47
2018-04-08T12:00:33.525Z,11.60
2018-04-08T12:03:01.044Z,7.43
2018-04-08T12:05:28.603Z,6.13
2018-04-08T12:07:56.880Z,5.60
2018-04-08T12:10:25.226Z,7.57
2018-04-08T12:12:53.185Z,8.00
2018-04-08T12:15:21.560Z,10.53
2018-04-08T12:17:49.184Z,6.50
2018-04-08T12:20:16.771Z,8.30
2018-04-08T12:22:44.424Z,6.40
2018-04-08T12:25:12.012Z,7.37
2018-04-08T12:27:39.626Z,6.87
2018-04-08T12:30:07.168Z,8.10
2018-04-08T12:32:35.487Z,10.10
2018-04-08T12:35:03.098Z,11.10
2018-04-08T12:37:30.656Z,9.50
2018-04-08T12:39:58.926Z,6.23
2018-04-08T12:42:26.486Z,6.87
2018-04-08T12:44:53.975Z,7.27
2018-04-08T12:47:22.261Z,9.90
2018-04-08T12:49:49.980Z,9.00
2018-04-08T12:52:17.602Z,10.47
2018-04-08T12:54:45.262Z,7.20
2018-04-08T12:57:12.852Z,8.17
2018-04-08T12:59:40.435Z,7.67
2018-04-08T13:02:07.926Z,15.13
2018-04-08T13:04:35.544Z,17.60
2018-04-08T13:07:03.110Z,12.17
2018-04-08T13:09:30.606Z,10.20
2018-04-08T13:11:58.168Z,13.20
2018-04-08T13:14:25.673Z,11.33
2018-04-08T13:16:53.264Z,6.83
2018-04-08T13:19:21.677Z,12.20
2018-04-08T13:21:49.343Z,8.13
2018-04-08T13:24:16.910Z,5.60
2018-04-08T13:26:44.630Z,8.43
2018-04-08T13:29:13.031Z,7.50
2018-04-08T13:31:41.364Z,7.40
2018-04-08T13:34:08.981Z,7.50
2018-04-08T13:36:36.538Z,8.30
2018-04-08T13:39:04.152Z,10.40
2018-04-08T13:41:32.529Z,8.60
2018-04-08T13:44:00.060Z,8.50
2018-04-08T13:46:27.612Z,7.23
2018-04-08T13:48:55.211Z,7.87
2018-04-08T13:51:22.778Z,5.80
2018-04-08T13:53:50.325Z,7.90
2018-04-08T13:56:18.733Z,13.23
2018-04-08T13:58:47.056Z,9.83
2018-04-08T14:01:14.679Z,10.20
2018-04-08T14:03:42.963Z,6.60
2018-04-08T14:06:10.550Z,6.93
2018-04-08T14:08:38.349Z,6.77
2018-04-08T14:11:05.911Z,7.83
2018-04-08T14:13:33.574Z,7.40
2018-04-08T14:16:01.870Z,11.33
2018-04-08T14:18:29.514Z,5.50
2018-04-08T14:20:57.039Z,8.23
2018-04-08T14:23:24.696Z,6.17
2018-04-08T14:25:52.183Z,7.13
2018-04-08T14:28:19.782Z,5.53
2018-04-08T14:30:47.343Z,4.20
2018-04-08T14:33:15.697Z,6.67
2018-04-08T14:35:44.060Z,7.90
2018-04-08T14:38:11.738Z,11.87
2018-04-08T14:40:39.481Z,10.10
2018-04-08T14:43:07.135Z,6.97
2018-04-08T14:45:34.779Z,6.27
2018-04-08T14:48:02.255Z,9.03
2018-04-08T14:50:29.762Z,9.30
2018-04-08T14:52:58.032Z,6.33
2018-04-08T14:55:26.367Z,8.30
2018-04-08T14:57:53.918Z,8.80
2018-04-08T15:00:21.567Z,3.30
2018-04-08T15:02:49.342Z,5.70
2018-04-08T15:05:16.872Z,6.57
2018-04-08T15:07:44.601Z,4.73
2018-04-08T15:10:12.190Z,7.23
2018-04-08T15:12:39.783Z,4.97
2018-04-08T15:15:09.058Z,6.53
2018-04-08T15:17:39.240Z,8.07
2018-04-08T15:20:10.449Z,3.63
2018-04-08T15:22:38.738Z,3.30
2018-04-08T15:25:08.986Z,3.73
2018-04-08T15:27:40.284Z,11.07
2018-04-08T15:30:10.216Z,5.33
2018-04-08T15:32:37.734Z,5.60
2018-04-08T15:35:06.637Z,5.10
2018-04-08T15:37:35.519Z,3.77
2018-04-08T15:40:04.051Z,4.90
2018-04-08T15:42:31.794Z,6.90
2018-04-08T15:44:59.407Z,4.67
2018-04-08T15:47:28.220Z,5.53
2018-04-08T15:49:56.174Z,8.33
2018-04-08T15:52:24.648Z,6.00
2018-04-08T15:54:52.592Z,7.97
2018-04-08T15:57:20.326Z,6.47
2018-04-08T15:59:48.517Z,4.70
2018-04-08T16:02:16.389Z,5.10
2018-04-08T16:04:44.212Z,4.73
2018-04-08T16:07:12.039Z,5.80
2018-04-08T16:09:39.838Z,5.33
2018-04-08T16:12:09.908Z,6.47
2018-04-08T16:14:38.341Z,7.77
2018-04-08T16:17:06.108Z,4.87
2018-04-08T16:19:33.761Z,4.47
2018-04-08T16:22:02.312Z,4.90
2018-04-08T16:24:29.881Z,4.57
2018-04-08T16:26:57.646Z,6.00
2018-04-08T16:29:27.265Z,4.90
2018-04-08T16:31:55.692Z,8.73
2018-04-08T16:34:23.495Z,9.50
2018-04-08T16:36:51.387Z,9.33
2018-04-08T16:39:21.663Z,6.80
2018-04-08T16:41:49.571Z,5.90
2018-04-08T16:44:19.084Z,6.20
2018-04-08T16:46:46.835Z,8.80
2018-04-08T16:49:15.278Z,6.03
2018-04-08T16:51:43.735Z,6.60
2018-04-08T16:54:11.388Z,7.53
2018-04-08T16:56:39.064Z,7.40
2018-04-08T16:59:06.598Z,6.53
2018-04-08T17:01:36.135Z,4.97
2018-04-08T17:04:04.038Z,10.00
2018-04-08T17:06:32.462Z,8.83
2018-04-08T17:09:00.658Z,6.97
2018-04-08T17:11:29.630Z,14.27
2018-04-08T17:13:57.393Z,10.53
2018-04-08T17:16:25.533Z,6.00
2018-04-08T17:18:53.163Z,8.23
2018-04-08T17:21:20.688Z,4.87
2018-04-08T17:23:48.420Z,8.77
2018-04-08T17:26:17.507Z,7.70
2018-04-08T17:28:45.391Z,7.00
2018-04-08T17:31:13.738Z,7.63
2018-04-08T17:33:42.011Z,8.23
2018-04-08T17:36:09.808Z,7.03
2018-04-08T17:38:45.752Z,10.27
2018-04-08T17:41:14.046Z,13.50
2018-04-08T17:43:42.110Z,11.97
2018-04-08T17:46:11.019Z,14.00
2018-04-08T17:48:38.681Z,11.70
2018-04-08T17:51:06.402Z,23.57
2018-04-08T17:53:34.808Z,18.87
2018-04-08T17:56:06.020Z,18.87
2018-04-08T17:58:33.866Z,21.70
2018-04-08T18:01:02.141Z,23.17
2018-04-08T18:03:30.553Z,29.23
2018-04-08T18:05:58.338Z,21.30
2018-04-08T18:08:27.513Z,22.57
2018-04-08T18:10:55.300Z,20.07
2018-04-08T18:13:28.001Z,33.70
2018-04-08T18:15:56.210Z,23.40
2018-04-08T18:18:24.393Z,17.60
2018-04-08T18:20:56.526Z,21.90
2018-04-08T18:23:25.140Z,27.47
2018-04-08T18:25:53.178Z,19.33
2018-04-08T18:28:21.823Z,28.33
2018-04-08T18:30:49.709Z,22.80
2018-04-08T18:33:17.283Z,21.60
2018-04-08T18:35:45.632Z,27.03
2018-04-08T18:38:13.571Z,21.97
2018-04-08T18:40:41.146Z,27.33
2018-04-08T18:43:09.166Z,27.03
2018-04-08T18:45:36.768Z,28.97
2018-04-08T18:48:05.200Z,26.00
2018-04-08T18:50:33.038Z,33.30
2018-04-08T18:53:00.889Z,42.10
2018-04-08T18:55:28.498Z,34.47
2018-04-08T18:57:56.402Z,38.17
2018-04-08T19:00:24.093Z,40.90
2018-04-08T19:02:52.027Z,37.10
2018-04-08T19:05:20.884Z,36.30
2018-04-08T19:07:48.483Z,38.43
2018-04-08T19:10:16.074Z,37.90
2018-04-08T19:12:44.600Z,34.33
2018-04-08T19:15:18.853Z,37.90
2018-04-08T19:17:52.106Z,34.80
2018-04-08T19:20:20.976Z,35.00
2018-04-08T19:22:49.263Z,36.90
2018-04-08T19:25:18.742Z,40.43
2018-04-08T19:27:47.379Z,41.80
2018-04-08T19:30:21.296Z,39.67
2018-04-08T19:32:49.721Z,40.80
2018-04-08T19:35:18.955Z,36.97
2018-04-08T19:37:47.832Z,36.50
2018-04-08T19:40:16.818Z,42.90
2018-04-08T19:42:45.175Z,38.50
2018-04-08T19:45:12.718Z,39.33
2018-04-08T19:47:40.266Z,42.47
2018-04-08T19:50:07.793Z,41.70
2018-04-08T19:52:35.394Z,43.80
2018-04-08T19:55:02.916Z,43.43
2018-04-08T19:57:31.458Z,39.00
2018-04-08T19:59:59.452Z,34.97
2018-04-08T20:02:27.799Z,47.70
2018-04-08T20:04:55.727Z,40.23
2018-04-08T20:07:23.275Z,38.97
2018-04-08T20:09:52.051Z,36.47
2018-04-08T20:12:20.520Z,43.10
2018-04-08T20:14:48.071Z,38.93
2018-04-08T20:17:17.451Z,41.37
2018-04-08T20:19:45.024Z,40.47
2018-04-08T20:22:12.919Z,43.57
2018-04-08T20:24:40.511Z,40.97
2018-04-08T20:27:08.972Z,43.53
2018-04-08T20:29:36.486Z,35.83
2018-04-08T20:32:04.058Z,40.60
2018-04-08T20:34:31.647Z,38.07
2018-04-08T20:36:59.191Z,43.60
2018-04-08T20:39:26.786Z,35.77
2018-04-08T20:41:54.354Z,38.23
2018-04-08T20:44:22.243Z,39.20
2018-04-08T20:46:49.780Z,42.27
2018-04-08T20:49:17.604Z,45.83
2018-04-08T20:51:45.172Z,45.50
2018-04-08T20:54:12.828Z,45.90
2018-04-08T20:56:40.450Z,46.93
2018-04-08T20:59:08.015Z,45.60
2018-04-08T21:01:35.589Z,50.07
2018-04-08T21:04:03.210Z,44.70
2018-04-08T21:06:30.777Z,47.07
2018-04-08T21:08:58.498Z,49.57
2018-04-08T21:11:26.106Z,52.83
2018-04-08T21:13:53.641Z,50.20
2018-04-08T21:16:21.177Z,48.50
2018-04-08T21:18:50.538Z,48.07
2018-04-08T21:21:18.164Z,50.23
2018-04-08T21:23:45.719Z,43.97
2018-04-08T21:26:13.271Z,48.00
2018-04-08T21:28:40.831Z,49.43
2018-04-08T21:31:08.350Z,50.87
2018-04-08T21:33:35.934Z,49.20
2018-04-08T21:36:03.516Z,53.13
2018-04-08T21:38:31.885Z,43.97
2018-04-08T21:41:00.240Z,46.50
2018-04-08T21:43:29.279Z,50.17
2018-04-08T21:45:56.869Z,49.33
2018-04-08T21:48:24.468Z,44.43
2018-04-08T21:50:52.062Z,48.37
2018-04-08T21:53:19.626Z,53.60
2018-04-08T21:55:47.175Z,50.13
2018-04-08T21:58:14.860Z,55.33
2018-04-08T22:00:42.484Z,51.30
2018-04-08T22:03:10.016Z,57.63
2018-04-08T22:05:37.586Z,50.80
2018-04-08T22:08:05.171Z,52.40
2018-04-08T22:10:32.674Z,60.37
2018-04-08T22:13:00.494Z,51.47
2018-04-08T22:15:28.051Z,52.90
2018-04-08T22:17:55.710Z,47.20
2018-04-08T22:20:24.039Z,51.80
2018-04-08T22:22:51.618Z,54.73
2018-04-08T22:25:19.176Z,54.30
2018-04-08T22:27:46.915Z,56.43
2018-04-08T22:30:14.543Z,52.00
2018-04-08T22:32:42.238Z,56.03
2018-04-08T22:35:09.892Z,55.23
2018-04-08T22:37:37.423Z,50.37
2018-04-08T22:40:05.062Z,53.17
2018-04-08T22:42:33.394Z,53.40
2018-04-08T22:45:00.887Z,48.27
2018-04-08T22:47:28.510Z,55.17
2018-04-08T22:49:56.176Z,58.20
2018-04-08T22:52:23.755Z,49.27
2018-04-08T22:54:51.394Z,55.70
2018-04-08T22:57:18.994Z,56.80
2018-04-08T22:59:46.482Z,49.77
2018-04-08T23:02:14.770Z,54.23
2018-04-08T23:04:42.355Z,59.93
2018-04-08T23:07:09.945Z,59.80
2018-04-08T23:09:37.453Z,56.60
2018-04-08T23:12:05.027Z,62.90
2018-04-08T23:14:32.593Z,60.93
2018-04-08T23:17:00.620Z,63.27
2018-04-08T23:19:28.294Z,62.73
2018-04-08T23:21:56.004Z,57.00
2018-04-08T23:24:23.748Z,58.90
2018-04-08T23:26:52.295Z,59.50
2018-04-08T23:29:20.647Z,64.80
2018-04-08T23:31:48.270Z,68.70
2018-04-08T23:34:15.912Z,59.57
2018-04-08T23:36:43.570Z,62.20
2018-04-08T23:39:11.948Z,67.70
2018-04-08T23:41:39.494Z,68.80
2018-04-08T23:44:07.210Z,60.10
2018-04-08T23:46:34.831Z,64.80
2018-04-08T23:49:03.250Z,72.90
2018-04-08T23:51:30.966Z,61.30
2018-04-08T23:53:58.539Z,66.07
2018-04-08T23:56:26.111Z,63.13
2018-04-08T23:58:53.699Z,75.80
